Nearby METAR Reports

 

KISM - Kissimmee/Orland, Florida, USA
Distance from station: NW 19mi, 31km
Updated: 10/16/2018 8:56am
Clear
Clear
 Wind from ESE
Wind: ESE 6 mph , 9 km/h
Temperature: 81°F , 27°C
Heat Index: 87°F , 31°C
Dew Point: 75°F , 24°C
Humidity: 84%
Barometer: 30.15 inHg , 1021 hPa
Clouds: Clear
Visibility: 10 miles , 16 km
2018/10/16 12:56 KISM 161256Z 12005KT 10SM CLR 27/24 A3015 RMK AO2 SLP210 T02670244
KMCO - Orlando, Florida, USA
Distance from station: NNW 23mi, 37km
Updated: 10/16/2018 8:53am
Clear
Clear
 Wind from ESE
Wind: ESE 7 mph , 11 km/h
Temperature: 79°F , 26°C
Dew Point: 75°F , 24°C
Humidity: 89%
Barometer: 30.14 inHg , 1020.7 hPa
Clouds: Clear
Visibility: 10 miles , 16 km
2018/10/16 12:53 KMCO 161253Z 11006KT 10SM CLR 26/24 A3014 RMK AO2 SLP204 T02560239
 
KORL - Orlando, Florida, USA
Distance from station: NNW 32mi, 51km
Updated: 10/16/2018 8:53am
Clear
Clear
 Wind from ESE
Wind: ESE 7 mph , 11 km/h
Temperature: 81°F , 27°C
Heat Index: 89°F , 32°C
Dew Point: 79°F , 26°C
Humidity: 94%
Barometer: 30.14 inHg , 1020.7 hPa
Clouds: Clear
Visibility: 10 miles , 16 km
2018/10/16 12:53 KORL 161253Z 11006KT 10SM CLR 27/26 A3014 RMK AO2 SLP207 T02670256
KMLB - Melbourne, Florida, USA
Distance from station: E 32mi, 52km
Updated: 10/16/2018 8:53am
Partly cloudy
Partly cloudy
 Wind from SE
Wind: SE 8 mph , 13 km/h
Temperature: 82°F , 28°C
Heat Index: 89°F , 32°C
Dew Point: 75°F , 24°C
Humidity: 79%
Barometer: 30.14 inHg , 1020.7 hPa
Clouds: Partly cloudy
Visibility: 10 miles , 16 km
Cloud details: Few Clouds 1700 ft
Partly cloudy 2200 ft
2018/10/16 12:53 KMLB 161253Z 13007KT 10SM FEW017 SCT022 28/24 A3014 RMK AO2 RAB40E49 SLP204 P0000 T02830244
 
KGIF - Winter Haven, Florida, USA
Distance from station: W 35mi, 56km
Updated: 10/16/2018 8:53am
Clear
Clear
 Wind from ESE
Wind: ESE 6 mph , 9 km/h
Temperature: 81°F , 27°C
Heat Index: 87°F , 31°C
Dew Point: 75°F , 24°C
Humidity: 84%
Barometer: 30.15 inHg , 1021 hPa
Clouds: Clear
Visibility: 10 miles , 16 km
2018/10/16 12:53 KGIF 161253Z AUTO 11005KT 10SM CLR 27/24 A3015 RMK AO2 SLP206 T02670244
KTIX - Titusville, Florida, USA
Distance from station: NE 35mi, 57km
Updated: 10/16/2018 8:46am
Few Clouds
Few Clouds
 Wind from SE
Wind: SE 5 mph , 7 km/h
Temperature: 84°F , 29°C
Heat Index: 98°F , 37°C
Dew Point: 81°F , 27°C
Humidity: 89%
Barometer: 30.14 inHg , 1020.7 hPa
Clouds: Few Clouds
Visibility: 7 miles , 11 km
Cloud details: Few Clouds 2500 ft
2018/10/16 12:46 KTIX 161246Z 13004KT 7SM FEW025 29/27 A3014
 
KCOF - Patrick Afb/Coco, Florida, USA
Distance from station: ENE 36mi, 58km
Updated: 10/16/2018 8:56am
Clear
Clear
 Wind from SE
Wind: SE 9 mph , 15 km/h
Temperature: 82°F , 28°C
Heat Index: 90°F , 32°C
Dew Point: 77°F , 25°C
Humidity: 84%
Barometer: 30.13 inHg , 1020.3 hPa
Clouds: Clear
Visibility: 10 miles , 16 km
2018/10/16 12:56 KCOF 161256Z AUTO 13008KT 10SM CLR 28/25 A3013 RMK AO2 SLP207 T02840252 $
KBOW - Bartow Municipal, Florida, USA
Distance from station: WSW 38mi, 61km
Updated: 10/16/2018 8:50am
Clear
Clear
 Wind from E
Wind: E 6 mph , 9 km/h
Temperature: 75°F , 24°C
Barometer: 30.14 inHg , 1020.7 hPa
Clouds: Clear
Visibility: 10 miles , 16 km
2018/10/16 12:50 KBOW 161250Z 10005KT 10SM SKC 24/ A3014
 
KXMR - Cape Canaveral, Florida, USA
Distance from station: NE 44mi, 72km
Updated: 10/16/2018 8:56am
Few Clouds
Few Clouds
 Wind from ESE
Wind: ESE 9 mph , 15 km/h
Temperature: 84°F , 29°C
Heat Index: 92°F , 33°C
Dew Point: 75°F , 24°C
Humidity: 74%
Barometer: 30.13 inHg , 1020.3 hPa
Clouds: Few Clouds
Visibility: 10 miles , 16 km
Cloud details: Few Clouds 1900 ft
2018/10/16 12:56 KXMR 161256Z AUTO 12008KT 10SM FEW019 29/24 A3013 RMK AO2 SLP206 T02850242 $
KTTS - Nasa Shuttle Fcl, Florida, USA
Distance from station: NE 45mi, 72km
Updated: 10/16/2018 8:56am
Clear
Clear
 Wind from calm
Wind: Calm
Temperature: 82°F , 28°C
Heat Index: 90°F , 32°C
Dew Point: 77°F , 25°C
Humidity: 84%
Barometer: 30.14 inHg , 1020.7 hPa
Clouds: Clear
Visibility: 10 miles , 16 km
2018/10/16 12:56 KTTS 161256Z AUTO 00000KT 10SM CLR 28/25 A3014 RMK AO2 SLP211 T02770247 $
 
KSFB - Sanford/Orlando, Florida, USA
Distance from station: N 45mi, 73km
Updated: 10/16/2018 8:53am
Clear
Clear
 Wind from E
Wind: E 5 mph , 7 km/h
Temperature: 79°F , 26°C
Dew Point: 77°F , 25°C
Humidity: 94%
Barometer: 30.14 inHg , 1020.7 hPa
Clouds: Clear
Visibility: 10 miles , 16 km
2018/10/16 12:53 KSFB 161253Z 10004KT 10SM CLR 26/25 A3014 RMK AO2 SLP204 T02610250
KLAL - Lakeland Regiona, Florida, USA
Distance from station: WSW 52mi, 84km
Updated: 10/16/2018 8:50am
Clear
Clear
 Wind from ESE
Wind: ESE 5 mph , 7 km/h
Temperature: 79°F , 26°C
Dew Point: 73°F , 23°C
Humidity: 84%
Barometer: 30.14 inHg , 1020.7 hPa
Clouds: Clear
Visibility: 10 miles , 16 km
2018/10/16 12:50 KLAL 161250Z 11004KT 10SM SKC 26/23 A3014
 
KVRB - Vero Beach, Florida, USA
Distance from station: SE 57mi, 91km
Updated: 10/16/2018 8:53am
Few Clouds
Few Clouds
 Wind from ESE
Wind: ESE 10 mph , 17 km/h
Temperature: 82°F , 28°C
Heat Index: 89°F , 32°C
Dew Point: 75°F , 24°C
Humidity: 79%
Barometer: 30.13 inHg , 1020.3 hPa
Clouds: Few Clouds
Visibility: 10 miles , 16 km
Cloud details: Few Clouds 3200 ft
2018/10/16 12:53 KVRB 161253Z 12009KT 10SM FEW032 28/24 A3013 RMK AO2 SLP203 T02830244
KZPH - Zephyrhills, Florida, USA
Distance from station: W 60mi, 96km
Updated: 10/16/2018 8:55am
Clear
Clear
 Wind from calm
Wind: Calm
Temperature: 75°F , 24°C
Dew Point: 75°F , 24°C
Humidity: 100%
Barometer: 30.14 inHg , 1020.7 hPa
Clouds: Clear
Visibility: 10 miles , 16 km
2018/10/16 12:55 KZPH 161255Z AUTO 00000KT 10SM CLR 24/24 A3014 RMK AO2 T02430239
 
KPCM - Plant City Muni, Florida, USA
Distance from station: W 61mi, 98km
Updated: 10/16/2018 8:55am
Clear
Clear
 Wind from ESE
Wind: ESE 7 mph , 11 km/h
Temperature: 81°F , 27°C
Heat Index: 87°F , 31°C
Dew Point: 75°F , 24°C
Humidity: 84%
Barometer: 30.15 inHg , 1021 hPa
Clouds: Clear
Visibility: 10 miles , 16 km
2018/10/16 12:55 KPCM 161255Z AUTO 11006KT 10SM CLR 27/24 A3015 RMK AO2
KLEE - Leesburg, Florida, USA
Distance from station: NW 62mi, 100km
Updated: 10/16/2018 8:53am
Clear
Clear
 Wind from ESE
Wind: ESE 7 mph , 11 km/h
Temperature: 79°F , 26°C
Dew Point: 77°F , 25°C
Humidity: 94%
Barometer: 30.15 inHg , 1021 hPa
Clouds: Clear
Visibility: 10 miles , 16 km
2018/10/16 12:53 KLEE 161253Z 12006KT 10SM CLR 26/25 A3015 RMK AO2 SLP207 T02610250
 
KOBE - Okeechobee Cty, Florida, USA
Distance from station: SSE 62mi, 100km
Updated: 10/16/2018 9:15am
Clear
Clear
 Wind from E
Wind: E 3 mph , 6 km/h
Temperature: 81°F , 27°C
Heat Index: 87°F , 31°C
Dew Point: 75°F , 24°C
Humidity: 84%
Barometer: 30.13 inHg , 1020.3 hPa
Clouds: Clear
2018/10/16 13:15 KOBE 161315Z AUTO 10003KT CLR 27/24 A3013 RMK AO2 PWINO
KFPR - Fort Pierce, Florida, USA
Distance from station: SE 65mi, 104km
Updated: 10/16/2018 8:53am
Partly cloudy
Partly cloudy
 Wind from ESE
Wind: ESE 9 mph , 15 km/h
Temperature: 82°F , 28°C
Heat Index: 89°F , 32°C
Dew Point: 75°F , 24°C
Humidity: 79%
Barometer: 30.13 inHg , 1020.3 hPa
Clouds: Partly cloudy
Visibility: 10 miles , 16 km
Cloud details: Few Clouds 2000 ft
Partly cloudy 3100 ft
2018/10/16 12:53 KFPR 161253Z 11008KT 10SM FEW020 SCT031 28/24 A3013 RMK AO2 SLP202 T02780244
 
KDED - Deland, Florida, USA
Distance from station: N 66mi, 106km
Updated: 10/16/2018 8:55am
Clear
Clear
 Wind from ESE
Wind: ESE 3 mph , 6 km/h
Temperature: 79°F , 26°C
Dew Point: 75°F , 24°C
Humidity: 89%
Barometer: 30.14 inHg , 1020.7 hPa
Clouds: Clear
Visibility: 10 miles , 16 km
2018/10/16 12:55 KDED 161255Z AUTO 12003KT 10SM CLR 26/24 A3014 RMK AO2
KEVB - New Smyrna Beach, Florida, USA
Distance from station: NNE 66mi, 106km
Updated: 10/16/2018 8:47am
Clear
Clear
 Wind from calm
Wind: Calm
Temperature: 79°F , 26°C
Dew Point: 75°F , 24°C
Humidity: 89%
Barometer: 30.15 inHg , 1021 hPa
Clouds: Clear
Visibility: 10 miles , 16 km
2018/10/16 12:47 KEVB 161247Z 00000KT 10SM CLR 26/24 A3015